Dodson, Oregon
Current Conditions -  °F | °C
As of 2:59 AM on Wednesday 26 Nov 2014 (Local Time) from K4S2 Reporting Station
Overcast Overcast  
Wind Chill: 57°   Ceiling: 6000
Heat Index: 57°   Visibility: 10mi
Dew Point: 50°   Wind: 7mph
Humidity: 77%   Direction: 290°WNW
Pressure: 30.23"   Gusts: NA
Location:  45.6281°N, 121.806°W
Report Text: K4S2 261059Z AUTO 29006KT 10SM SCT049 OVC060 14/10 A3023 RMK AO2 SLP253 T01400100
Loading
Personal Weather Stations






























Interactive Weather Map New forecast layout! Learn more

10-Day Weather Forecast

Advertisements
Track Severe Weather on mobile